Time;durP1;ratioP1;P1;durP2;ratioP2;P2;SDS_P1;SDS_P2;PMS_P1;PMS_P2;Temp;Humidity;BMP_temperature;BMP_pressure;BME280_temperature;BME280_humidity;BME280_pressure;Samples;Min_cycle;Max_cycle;Signal;HPM_P1;HPM_P2
2022/10/15 00:01:42;;;;;;;17.00;14.32;;;13.60;99.90;;;;;;5081849;28;20076;-66
2022/10/15 00:04:08;;;;;;;17.67;14.40;;;13.60;99.90;;;;;;5080373;28;20203;-66
2022/10/15 00:06:34;;;;;;;19.55;14.90;;;13.60;99.90;;;;;;5082037;28;20576;-66
2022/10/15 00:09:00;;;;;;;17.58;15.60;;;13.60;99.90;;;;;;5082455;28;20042;-66
2022/10/15 00:11:27;;;;;;;19.55;15.57;;;13.60;99.90;;;;;;5082035;28;20443;-66
2022/10/15 00:13:54;;;;;;;17.80;15.95;;;13.70;99.90;;;;;;5076909;28;20051;-66
2022/10/15 00:16:22;;;;;;;24.00;17.10;;;13.60;99.90;;;;;;5074488;28;20093;-66
2022/10/15 00:18:50;;;;;;;18.58;16.05;;;13.60;99.90;;;;;;5063717;28;20590;-66
2022/10/15 00:21:17;;;;;;;18.30;16.35;;;13.60;99.90;;;;;;5081149;28;20035;-66
2022/10/15 00:23:43;;;;;;;22.20;17.63;;;13.60;99.90;;;;;;5081967;28;20032;-66
2022/10/15 00:26:14;;;;;;;23.40;17.10;;;13.70;99.90;;;;;;5081402;28;20113;-67
2022/10/15 00:28:40;;;;;;;22.38;17.63;;;13.60;99.90;;;;;;5077528;28;20028;-66
2022/10/15 00:31:09;;;;;;;21.05;17.50;;;13.60;99.90;;;;;;5078162;28;20039;-66
2022/10/15 00:33:34;;;;;;;22.17;18.88;;;13.50;99.90;;;;;;5080083;28;20138;-66
2022/10/15 00:36:10;;;;;;;22.40;18.98;;;13.50;99.90;;;;;;5078141;28;20613;-66
2022/10/15 00:38:36;;;;;;;25.55;19.73;;;13.40;99.90;;;;;;5080153;28;20580;-66
2022/10/15 00:41:03;;;;;;;24.00;20.15;;;13.40;99.90;;;;;;5081125;28;20147;-66
2022/10/15 00:44:21;;;;;;;22.67;19.13;;;13.40;99.90;;;;;;5079425;28;20566;-66
2022/10/15 00:46:50;;;;;;;29.00;19.75;;;13.30;99.90;;;;;;5032758;28;20086;-66
2022/10/15 00:49:20;;;;;;;23.13;19.33;;;13.30;99.90;;;;;;5077900;28;20640;-66
2022/10/15 00:52:01;;;;;;;22.38;18.50;;;13.20;99.90;;;;;;5081234;28;20039;-66
2022/10/15 00:54:31;;;;;;;23.83;19.55;;;13.20;99.90;;;;;;5079363;28;20074;-66
2022/10/15 00:56:57;;;;;;;27.73;20.27;;;13.10;99.90;;;;;;5079152;28;20036;-66
2022/10/15 00:59:26;;;;;;;25.10;19.33;;;13.10;99.90;;;;;;5077719;28;20040;-66
2022/10/15 01:01:52;;;;;;;24.17;18.50;;;13.00;99.90;;;;;;5078084;28;20044;-66
2022/10/15 01:04:18;;;;;;;22.80;18.85;;;13.10;99.90;;;;;;5081536;28;20039;-66
2022/10/15 01:06:45;;;;;;;23.48;20.35;;;13.00;99.90;;;;;;5081524;28;20028;-66
2022/10/15 01:09:12;;;;;;;25.75;19.85;;;13.00;99.90;;;;;;5081109;28;20127;-66
2022/10/15 01:11:49;;;;;;;21.85;18.35;;;12.90;99.90;;;;;;5078521;28;20040;-66
2022/10/15 01:14:17;;;;;;;21.02;18.35;;;12.90;99.90;;;;;;5075512;28;20247;-66
2022/10/15 01:16:54;;;;;;;24.38;18.13;;;12.80;99.90;;;;;;5076114;28;20810;-66
2022/10/15 01:19:48;;;;;;;21.70;17.52;;;12.80;99.90;;;;;;5077736;28;20054;-66
2022/10/15 01:22:37;;;;;;;21.65;16.80;;;12.80;99.90;;;;;;5079086;28;20377;-66
2022/10/15 01:25:29;;;;;;;22.80;18.55;;;12.80;99.90;;;;;;5079857;28;20044;-66
2022/10/15 01:28:31;;;;;;;23.00;18.42;;;12.80;99.90;;;;;;5078137;28;20126;-66
2022/10/15 01:31:05;;;;;;;24.40;18.65;;;12.80;99.90;;;;;;5076293;28;20032;-66
2022/10/15 01:33:41;;;;;;;23.02;19.08;;;12.90;99.90;;;;;;5062037;28;20116;-66
2022/10/15 01:36:33;;;;;;;25.17;20.52;;;13.00;99.90;;;;;;5078475;28;20040;-66
2022/10/15 01:39:15;;;;;;;25.38;20.05;;;13.10;99.90;;;;;;5067085;28;20546;-66
2022/10/15 01:41:42;;;;;;;25.77;20.92;;;13.10;99.90;;;;;;5080944;28;20036;-66
2022/10/15 01:44:41;;;;;;;25.35;21.10;;;13.10;99.90;;;;;;5062428;28;20484;-66
2022/10/15 01:47:13;;;;;;;27.67;23.00;;;13.10;99.90;;;;;;5079508;28;20553;-66
2022/10/15 01:49:44;;;;;;;30.17;22.67;;;13.20;99.90;;;;;;5079625;28;20036;-66
2022/10/15 01:52:16;;;;;;;29.25;24.70;;;13.20;99.90;;;;;;5078400;28;20036;-66
2022/10/15 01:54:45;;;;;;;24.20;16.57;;;13.30;99.90;;;;;;5079196;28;20448;-66
2022/10/15 01:57:12;;;;;;;29.20;23.10;;;13.30;99.90;;;;;;5064189;28;20297;-66
2022/10/15 01:59:38;;;;;;;30.05;22.98;;;13.20;99.90;;;;;;5080069;28;20793;-66
2022/10/15 02:02:04;;;;;;;27.13;22.58;;;13.20;99.90;;;;;;5079469;28;20519;-66
2022/10/15 02:04:31;;;;;;;27.60;22.60;;;13.20;99.90;;;;;;5080583;28;20036;-66
2022/10/15 02:07:22;;;;;;;29.95;23.70;;;13.20;99.90;;;;;;5065292;28;20032;-66
2022/10/15 02:10:02;;;;;;;32.70;23.15;;;13.30;99.90;;;;;;5020838;28;20036;-66
2022/10/15 02:12:50;;;;;;;31.33;24.90;;;13.30;99.90;;;;;;5076001;28;20075;-66
2022/10/15 02:15:33;;;;;;;27.83;23.33;;;13.30;99.90;;;;;;5064787;28;20089;-66
2022/10/15 02:18:05;;;;;;;26.85;23.17;;;13.30;99.90;;;;;;5078755;28;20040;-66
2022/10/15 02:20:44;;;;;;;28.95;23.08;;;13.30;99.90;;;;;;5079684;28;20135;-66
2022/10/15 02:23:20;;;;;;;29.05;23.05;;;13.30;99.90;;;;;;5078646;28;20036;-66
2022/10/15 02:25:48;;;;;;;25.38;22.38;;;13.30;99.90;;;;;;5077725;28;20517;-66
2022/10/15 02:28:16;;;;;;;25.00;22.23;;;13.30;99.90;;;;;;5077945;28;20040;-67
2022/10/15 02:30:44;;;;;;;26.05;21.23;;;13.20;99.90;;;;;;5078616;28;20074;-66
2022/10/15 02:33:11;;;;;;;27.88;22.42;;;13.30;99.90;;;;;;5076584;28;20039;-66
2022/10/15 02:35:37;;;;;;;26.23;21.95;;;13.30;99.90;;;;;;5079061;28;20509;-66
2022/10/15 02:38:07;;;;;;;27.95;22.10;;;13.20;99.90;;;;;;5078111;28;20256;-66
2022/10/15 02:40:35;;;;;;;27.98;22.85;;;13.30;99.90;;;;;;5078500;28;20039;-66
2022/10/15 02:43:05;;;;;;;30.38;23.27;;;13.30;99.90;;;;;;5078655;28;20042;-66
2022/10/15 02:45:31;;;;;;;27.13;22.15;;;13.30;99.90;;;;;;5079671;28;20074;-66
2022/10/15 02:47:57;;;;;;;30.00;24.65;;;13.30;99.90;;;;;;5078601;28;20036;-66
2022/10/15 02:50:22;;;;;;;31.67;23.67;;;13.30;99.90;;;;;;5076570;28;20111;-66
2022/10/15 02:52:48;;;;;;;27.48;23.05;;;13.50;99.90;;;;;;5077704;28;20032;-66
2022/10/15 02:55:14;;;;;;;29.35;23.70;;;13.40;99.90;;;;;;5077750;28;20036;-66
2022/10/15 02:57:39;;;;;;;27.95;22.65;;;13.40;99.90;;;;;;5078580;28;20028;-66
2022/10/15 03:00:05;;;;;;;28.45;23.98;;;13.40;99.90;;;;;;5063370;28;20097;-66
2022/10/15 03:02:31;;;;;;;27.70;22.38;;;13.50;99.90;;;;;;5062220;28;20044;-66
2022/10/15 03:04:57;;;;;;;27.98;22.00;;;13.50;99.90;;;;;;5077313;28;20036;-66
2022/10/15 03:07:22;;;;;;;24.80;21.67;;;13.50;99.90;;;;;;5078836;28;20028;-66
2022/10/15 03:09:48;;;;;;;25.88;23.02;;;13.50;99.90;;;;;;5078266;28;20036;-66
2022/10/15 03:12:13;;;;;;;23.70;21.13;;;13.50;99.90;;;;;;5075767;28;20043;-66
2022/10/15 03:14:39;;;;;;;31.48;24.48;;;13.50;99.90;;;;;;5075627;28;20028;-66
2022/10/15 03:17:04;;;;;;;32.97;24.40;;;13.50;99.90;;;;;;5076524;28;20028;-66
2022/10/15 03:19:30;;;;;;;28.60;23.73;;;13.70;99.90;;;;;;5078584;28;20111;-66
2022/10/15 03:21:55;;;;;;;31.63;25.00;;;13.70;99.90;;;;;;5065450;28;20058;-66
2022/10/15 03:24:21;;;;;;;27.52;23.88;;;13.70;99.90;;;;;;5077302;28;20044;-66
2022/10/15 03:26:46;;;;;;;30.42;24.23;;;13.80;99.90;;;;;;5079439;28;20303;-66
2022/10/15 03:29:12;;;;;;;29.40;23.45;;;13.60;99.90;;;;;;5077790;28;20040;-66
2022/10/15 03:31:38;;;;;;;28.17;22.73;;;13.60;99.90;;;;;;5078773;28;20140;-66
2022/10/15 03:34:04;;;;;;;25.98;21.67;;;13.50;99.90;;;;;;5077705;28;20043;-66
2022/10/15 03:36:29;;;;;;;27.17;22.42;;;13.50;99.90;;;;;;5079383;28;20036;-66
2022/10/15 03:38:55;;;;;;;23.58;21.02;;;13.50;99.90;;;;;;5064613;28;20101;-66
2022/10/15 03:41:20;;;;;;;26.98;22.83;;;13.40;99.90;;;;;;5069096;28;20081;-66
2022/10/15 03:43:46;;;;;;;26.38;22.13;;;13.40;99.90;;;;;;5082674;28;20104;-66
2022/10/15 03:46:11;;;;;;;25.95;22.15;;;13.40;99.90;;;;;;5080454;28;21350;-66
2022/10/15 03:48:37;;;;;;;27.73;23.48;;;13.40;99.90;;;;;;5082265;28;20216;-66
2022/10/15 03:51:03;;;;;;;29.17;22.63;;;13.40;99.90;;;;;;5081338;28;20087;-66
2022/10/15 03:53:28;;;;;;;25.33;21.58;;;13.40;99.90;;;;;;5083004;28;20047;-66
2022/10/15 03:55:54;;;;;;;27.30;21.52;;;13.40;99.90;;;;;;5081252;28;20028;-66
2022/10/15 03:58:19;;;;;;;25.83;21.63;;;13.40;99.90;;;;;;5066382;28;20039;-66
2022/10/15 04:00:45;;;;;;;26.70;22.23;;;13.40;99.90;;;;;;5082384;28;20040;-66
2022/10/15 04:03:11;;;;;;;26.83;21.90;;;13.40;99.90;;;;;;5081334;28;20330;-66
2022/10/15 04:05:37;;;;;;;24.73;21.60;;;13.40;99.90;;;;;;5082755;28;20039;-66
2022/10/15 04:08:03;;;;;;;25.27;21.50;;;13.40;99.90;;;;;;5080670;28;20068;-66
2022/10/15 04:10:29;;;;;;;24.75;21.48;;;13.40;99.90;;;;;;5081719;28;20040;-66
2022/10/15 04:12:55;;;;;;;24.60;20.17;;;13.50;99.90;;;;;;5081333;28;20040;-66
2022/10/15 04:15:20;;;;;;;27.20;21.90;;;13.50;99.90;;;;;;5078762;28;20035;-66
2022/10/15 04:17:46;;;;;;;27.63;22.67;;;13.40;99.90;;;;;;5081454;28;20123;-66
2022/10/15 04:20:11;;;;;;;28.65;22.33;;;13.50;99.90;;;;;;5078533;28;20035;-66
2022/10/15 04:22:37;;;;;;;26.02;22.13;;;13.40;99.90;;;;;;5080118;28;20036;-66
2022/10/15 04:25:03;;;;;;;25.08;21.70;;;13.40;99.90;;;;;;5080554;28;20113;-66
2022/10/15 04:27:28;;;;;;;30.27;22.90;;;13.40;99.90;;;;;;5081859;28;20115;-66
2022/10/15 04:29:54;;;;;;;28.13;21.73;;;13.40;99.90;;;;;;5064195;28;20082;-66
2022/10/15 04:32:20;;;;;;;27.00;22.23;;;13.40;99.90;;;;;;5079555;28;20235;-66
2022/10/15 04:34:46;;;;;;;29.40;22.60;;;13.40;99.90;;;;;;5081868;28;20028;-66
2022/10/15 04:37:12;;;;;;;29.77;23.13;;;13.40;99.90;;;;;;5065184;28;20024;-66
2022/10/15 04:39:37;;;;;;;28.25;22.30;;;13.40;99.90;;;;;;5081358;28;20096;-66
2022/10/15 04:42:03;;;;;;;33.10;23.90;;;13.40;99.90;;;;;;5068673;28;20139;-66
2022/10/15 04:44:29;;;;;;;29.02;23.27;;;13.50;99.90;;;;;;5077838;28;20048;-66
2022/10/15 04:46:54;;;;;;;26.70;22.13;;;13.40;99.90;;;;;;5062888;28;20035;-66
2022/10/15 04:49:20;;;;;;;29.25;22.63;;;13.50;99.90;;;;;;5066790;28;20036;-66
2022/10/15 04:51:45;;;;;;;26.45;23.00;;;13.50;99.90;;;;;;5081345;28;20040;-66
2022/10/15 04:54:11;;;;;;;29.13;21.83;;;13.50;99.90;;;;;;5081077;28;20043;-66
2022/10/15 04:56:37;;;;;;;28.52;22.23;;;13.50;99.90;;;;;;5081524;28;20038;-66
2022/10/15 04:59:06;;;;;;;25.75;22.27;;;13.50;99.90;;;;;;5079054;28;20067;-66
2022/10/15 05:01:32;;;;;;;27.60;21.77;;;13.50;99.90;;;;;;5080159;28;20040;-66
2022/10/15 05:03:58;;;;;;;26.75;21.13;;;13.50;99.90;;;;;;5079351;28;20400;-66
2022/10/15 05:06:23;;;;;;;28.52;21.90;;;13.50;99.90;;;;;;5078795;28;20455;-66
2022/10/15 05:08:50;;;;;;;26.98;22.08;;;13.60;99.90;;;;;;5078450;28;20455;-66
2022/10/15 05:11:23;;;;;;;25.73;21.83;;;13.50;99.90;;;;;;5079761;28;20040;-66
2022/10/15 05:13:49;;;;;;;30.58;21.92;;;13.50;99.90;;;;;;5078239;28;20119;-66
2022/10/15 05:16:17;;;;;;;23.35;19.83;;;13.30;99.90;;;;;;5075273;28;20483;-66
2022/10/15 05:18:46;;;;;;;24.98;20.58;;;13.30;99.90;;;;;;5079651;28;20044;-66
2022/10/15 05:21:13;;;;;;;25.55;20.27;;;13.30;99.90;;;;;;5066283;28;20122;-66
2022/10/15 05:23:39;;;;;;;23.55;19.60;;;13.30;99.90;;;;;;5080446;28;20348;-66
2022/10/15 05:26:11;;;;;;;24.10;20.70;;;13.30;99.90;;;;;;5080975;28;20035;-66
2022/10/15 05:28:37;;;;;;;24.40;20.50;;;13.30;99.90;;;;;;5078956;28;20066;-66
2022/10/15 05:31:23;;;;;;;29.13;20.45;;;13.20;99.90;;;;;;5074422;28;20110;-66
2022/10/15 05:33:50;;;;;;;25.55;20.45;;;13.20;99.90;;;;;;5063987;28;20036;-66
2022/10/15 05:36:18;;;;;;;25.05;19.25;;;13.20;99.90;;;;;;5076488;28;20100;-66
2022/10/15 05:38:45;;;;;;;26.20;19.42;;;13.10;99.90;;;;;;5080497;28;20032;-66
2022/10/15 05:41:11;;;;;;;25.83;19.48;;;13.00;99.90;;;;;;5079249;28;20124;-66
2022/10/15 05:43:37;;;;;;;25.50;19.95;;;13.10;99.90;;;;;;5080508;28;20226;-66
2022/10/15 05:46:03;;;;;;;26.95;20.65;;;13.10;99.90;;;;;;5079608;28;20330;-66
2022/10/15 05:48:28;;;;;;;24.65;20.45;;;13.00;99.90;;;;;;5078724;28;20440;-66
2022/10/15 05:51:03;;;;;;;25.75;18.52;;;12.80;99.90;;;;;;5063560;28;20051;-66
2022/10/15 05:53:28;;;;;;;26.30;19.70;;;12.80;99.90;;;;;;5080009;28;20040;-66
2022/10/15 05:55:55;;;;;;;29.13;20.27;;;13.10;99.90;;;;;;5080300;28;20157;-66
2022/10/15 05:58:21;;;;;;;28.63;20.70;;;13.00;99.90;;;;;;5079489;28;20035;-66
2022/10/15 06:00:59;;;;;;;27.30;20.40;;;13.00;99.90;;;;;;5063373;28;20391;-66
2022/10/15 06:03:26;;;;;;;27.70;21.00;;;13.00;99.90;;;;;;5077834;28;20047;-66
2022/10/15 06:05:51;;;;;;;29.48;21.25;;;13.00;99.90;;;;;;5079398;28;20059;-66
2022/10/15 06:08:18;;;;;;;33.15;21.50;;;13.00;99.90;;;;;;5059962;28;20139;-66
2022/10/15 06:10:45;;;;;;;30.52;22.10;;;13.10;99.90;;;;;;5062775;28;20028;-67
2022/10/15 06:13:10;;;;;;;30.83;22.38;;;13.10;99.90;;;;;;5080062;28;20032;-67
2022/10/15 06:15:41;;;;;;;35.38;24.27;;;13.20;99.90;;;;;;5075740;28;20438;-67
2022/10/15 06:18:07;;;;;;;31.45;23.98;;;13.20;99.90;;;;;;5058858;28;20275;-67
2022/10/15 06:20:33;;;;;;;33.75;22.67;;;13.00;99.90;;;;;;5065601;28;20044;-67
2022/10/15 06:23:00;;;;;;;34.25;23.70;;;13.00;99.90;;;;;;5041997;28;20051;-67
2022/10/15 06:25:26;;;;;;;30.95;22.92;;;13.00;99.90;;;;;;5078684;28;20036;-67
2022/10/15 06:27:52;;;;;;;30.65;22.85;;;13.00;99.90;;;;;;5076998;28;20043;-67
2022/10/15 06:30:18;;;;;;;31.67;22.70;;;13.00;99.90;;;;;;5075286;28;20043;-67
2022/10/15 06:32:51;;;;;;;30.55;22.25;;;12.90;99.90;;;;;;5079320;28;20032;-67
2022/10/15 06:35:17;;;;;;;;;;;12.90;99.90;;;;;;5078622;28;20034;-67
2022/10/15 06:37:43;;;;;;;34.53;21.50;;;12.90;99.90;;;;;;5079230;28;20010;-67
2022/10/15 06:40:10;;;;;;;36.58;22.73;;;12.90;99.90;;;;;;5077114;28;20108;-67
2022/10/15 06:42:36;;;;;;;28.73;21.33;;;12.90;99.90;;;;;;5077992;28;21878;-67
2022/10/15 06:45:02;;;;;;;29.60;21.90;;;13.00;99.90;;;;;;5073231;28;20127;-67
2022/10/15 06:47:28;;;;;;;33.88;23.58;;;13.10;99.90;;;;;;5077337;28;20025;-64
2022/10/15 06:49:53;;;;;;;33.17;23.77;;;13.10;99.90;;;;;;5063714;28;20093;-64
2022/10/15 06:52:19;;;;;;;33.05;23.55;;;13.10;99.90;;;;;;5069296;28;20032;-65
2022/10/15 06:54:45;;;;;;;36.22;24.80;;;13.20;99.90;;;;;;5075473;28;20039;-64
2022/10/15 06:57:10;;;;;;;37.42;24.40;;;13.20;99.90;;;;;;5077730;28;20025;-64
2022/10/15 06:59:36;;;;;;;38.67;26.33;;;13.20;99.90;;;;;;5078468;28;20492;-64
2022/10/15 07:02:01;;;;;;;41.08;26.83;;;13.20;99.90;;;;;;5061327;28;20058;-64
2022/10/15 07:04:27;;;;;;;43.13;28.15;;;13.30;99.90;;;;;;5078160;28;20443;-65
2022/10/15 07:06:53;;;;;;;41.03;27.90;;;13.30;99.90;;;;;;5078391;28;20476;-63
2022/10/15 07:09:19;;;;;;;47.75;28.42;;;13.40;99.90;;;;;;5061931;28;20093;-64
2022/10/15 07:11:45;;;;;;;46.13;28.30;;;13.50;99.90;;;;;;5079834;28;20040;-64
2022/10/15 07:14:10;;;;;;;46.95;29.27;;;13.50;99.90;;;;;;5059255;28;20529;-64
2022/10/15 07:16:38;;;;;;;47.03;29.33;;;13.60;99.90;;;;;;5080106;28;20036;-65
2022/10/15 07:19:04;;;;;;;51.20;30.13;;;13.70;99.90;;;;;;5082093;28;20787;-64
2022/10/15 07:21:30;;;;;;;48.45;30.23;;;13.70;99.90;;;;;;5079327;28;20043;-65
2022/10/15 07:23:55;;;;;;;52.80;32.13;;;13.60;99.90;;;;;;5083059;28;20425;-64
2022/10/15 07:26:21;;;;;;;50.42;32.10;;;13.70;99.90;;;;;;5063882;28;20831;-63
2022/10/15 07:28:46;;;;;;;53.72;32.55;;;13.80;99.90;;;;;;5077721;28;20033;-65
2022/10/15 07:31:12;;;;;;;52.75;32.28;;;13.90;99.90;;;;;;5078729;28;20247;-63
2022/10/15 07:33:38;;;;;;;51.30;33.50;;;13.90;99.90;;;;;;5066132;28;20484;-64
2022/10/15 07:36:06;;;;;;;49.35;31.88;;;13.90;99.90;;;;;;5080594;28;20617;-64
2022/10/15 07:38:32;;;;;;;56.33;33.75;;;13.90;99.90;;;;;;5082016;28;22163;-65
2022/10/15 07:41:00;;;;;;;49.83;32.22;;;13.90;99.90;;;;;;5067907;28;20097;-64
2022/10/15 07:43:26;;;;;;;52.22;33.05;;;14.00;99.90;;;;;;5081831;28;20028;-65
2022/10/15 07:45:51;;;;;;;54.25;33.65;;;14.00;99.90;;;;;;5060481;28;20047;-64
2022/10/15 07:48:17;;;;;;;53.92;32.33;;;14.10;99.90;;;;;;5077783;28;20028;-65
2022/10/15 07:50:42;;;;;;;47.47;31.13;;;14.10;99.90;;;;;;5067918;28;20157;-64
2022/10/15 07:53:08;;;;;;;51.17;32.53;;;14.20;99.90;;;;;;5081337;28;20084;-64
2022/10/15 07:55:34;;;;;;;48.97;31.10;;;14.20;99.90;;;;;;5082248;28;20043;-63
2022/10/15 07:57:59;;;;;;;51.28;32.35;;;14.30;99.90;;;;;;5078957;28;20035;-64
2022/10/15 08:00:25;;;;;;;51.25;32.05;;;14.40;99.90;;;;;;5081417;28;20119;-63
2022/10/15 08:02:51;;;;;;;49.08;30.02;;;14.40;99.90;;;;;;5081809;28;20173;-65
2022/10/15 08:05:16;;;;;;;48.25;30.75;;;14.50;99.90;;;;;;5081904;28;20494;-64
2022/10/15 08:07:42;;;;;;;43.03;28.13;;;14.50;99.90;;;;;;5080464;28;20625;-64
2022/10/15 08:10:09;;;;;;;49.83;30.20;;;14.40;99.90;;;;;;5080876;28;20040;-64
2022/10/15 08:12:35;;;;;;;43.03;30.23;;;14.40;99.90;;;;;;5081066;28;20117;-64
2022/10/15 08:15:01;;;;;;;41.58;28.25;;;14.60;99.90;;;;;;5076252;28;21091;-65
2022/10/15 08:17:26;;;;;;;44.00;28.27;;;14.50;99.90;;;;;;5078128;28;20096;-64
2022/10/15 08:19:52;;;;;;;39.33;27.73;;;14.50;99.90;;;;;;5079699;28;20040;-63
2022/10/15 08:22:18;;;;;;;40.78;27.45;;;14.60;99.90;;;;;;5076598;28;20462;-63
2022/10/15 08:24:43;;;;;;;40.00;27.38;;;14.70;99.90;;;;;;5064706;28;20086;-64
2022/10/15 08:27:09;;;;;;;39.50;26.63;;;14.80;99.90;;;;;;5063562;28;20063;-63
2022/10/15 08:29:34;;;;;;;42.85;26.92;;;14.90;99.90;;;;;;5080403;28;20131;-63
2022/10/15 08:32:00;;;;;;;35.33;25.05;;;14.90;99.90;;;;;;5080693;28;20036;-64
2022/10/15 08:34:25;;;;;;;37.03;24.80;;;14.90;99.90;;;;;;5080812;28;20432;-63
2022/10/15 08:36:51;;;;;;;36.55;24.65;;;15.00;99.90;;;;;;5079906;28;20876;-63
2022/10/15 08:39:17;;;;;;;33.97;24.38;;;15.20;99.90;;;;;;5080929;28;20032;-63
2022/10/15 08:41:50;;;;;;;36.00;24.05;;;15.20;99.90;;;;;;5078735;28;20335;-64
2022/10/15 08:44:26;;;;;;;;;;;15.20;99.90;;;;;;5060507;28;20506;-63
2022/10/15 08:47:17;;;;;;;30.80;21.80;;;15.20;99.90;;;;;;5080188;28;20177;-63
2022/10/15 08:49:50;;;;;;;33.08;22.20;;;15.10;99.90;;;;;;5074761;28;20067;-63
2022/10/15 08:52:16;;;;;;;;;;;15.20;99.90;;;;;;5062132;28;20060;-64
2022/10/15 08:54:41;;;;;;;30.73;20.05;;;15.40;99.90;;;;;;5081500;28;19958;-63
2022/10/15 08:57:15;;;;;;;28.00;19.45;;;15.50;99.90;;;;;;5079889;28;20119;-64
2022/10/15 09:00:20;;;;;;;24.42;16.55;;;15.60;99.90;;;;;;5079996;28;20083;-63
2022/10/15 09:02:54;;;;;;;17.13;14.57;;;15.60;99.90;;;;;;5063315;28;20040;-63
2022/10/15 09:05:41;;;;;;;18.73;13.82;;;15.90;99.90;;;;;;5077379;28;20063;-64
2022/10/15 09:08:27;;;;;;;15.95;12.20;;;15.70;99.90;;;;;;5079262;28;20111;-63
2022/10/15 09:11:03;;;;;;;15.18;11.45;;;15.70;99.90;;;;;;5079665;28;20101;-63
2022/10/15 09:13:39;;;;;;;16.08;11.00;;;15.80;99.90;;;;;;5074366;28;20229;-63
2022/10/15 09:16:10;;;;;;;9.10;7.50;;;15.70;99.90;;;;;;5078300;28;20407;-63
2022/10/15 09:18:40;;;;;;;13.98;9.07;;;15.60;99.90;;;;;;5080131;28;20038;-64
2022/10/15 09:21:08;;;;;;;15.65;10.00;;;15.70;99.90;;;;;;5081322;28;20139;-62
2022/10/15 09:23:34;;;;;;;12.15;9.85;;;15.80;99.90;;;;;;5079258;28;20032;-63
2022/10/15 09:26:19;;;;;;;10.95;8.93;;;15.80;99.90;;;;;;5078595;28;20067;-64
2022/10/15 09:28:58;;;;;;;13.35;9.10;;;15.80;99.90;;;;;;5076793;28;20489;-64
2022/10/15 09:31:34;;;;;;;10.35;8.00;;;15.80;99.90;;;;;;5077351;28;20031;-63
2022/10/15 09:34:21;;;;;;;9.00;7.25;;;15.90;99.90;;;;;;5086361;28;20063;-63
2022/10/15 09:36:55;;;;;;;8.40;5.63;;;16.00;99.90;;;;;;5059642;28;20127;-63
2022/10/15 09:39:24;;;;;;;5.88;3.58;;;16.00;99.90;;;;;;5080884;28;20031;-64
2022/10/15 09:42:14;;;;;;;3.17;2.88;;;16.00;99.90;;;;;;5076713;28;20517;-63
2022/10/15 09:44:43;;;;;;;5.97;2.65;;;16.00;99.90;;;;;;5077026;28;20111;-63
2022/10/15 09:47:29;;;;;;;4.25;2.53;;;16.00;99.90;;;;;;5079216;28;20032;-63
2022/10/15 09:49:55;;;;;;;4.60;2.92;;;16.00;99.90;;;;;;5079557;28;20490;-63
2022/10/15 09:52:44;;;;;;;3.25;2.70;;;16.10;99.90;;;;;;5083588;28;20043;-63
2022/10/15 09:55:45;;;;;;;2.83;2.50;;;16.00;99.90;;;;;;5083411;28;20056;-64
2022/10/15 09:58:29;;;;;;;6.32;3.22;;;16.10;99.90;;;;;;5066043;28;20400;-63
2022/10/15 10:00:57;;;;;;;;;;;16.10;99.90;;;;;;5076412;28;20041;-63
2022/10/15 10:03:24;;;;;;;4.15;3.05;;;16.20;99.90;;;;;;5062969;28;19939;-62
2022/10/15 10:05:58;;;;;;;4.50;3.42;;;16.20;99.90;;;;;;5079559;28;20032;-64
2022/10/15 10:08:26;;;;;;;6.22;2.90;;;16.20;99.90;;;;;;5062721;28;21309;-63
2022/10/15 10:11:06;;;;;;;4.72;2.67;;;16.30;99.90;;;;;;5078833;28;20032;-63
2022/10/15 10:13:39;;;;;;;2.58;1.90;;;17.20;99.90;;;;;;5077046;28;20032;-62
2022/10/15 10:16:08;;;;;;;2.72;1.60;;;16.40;99.90;;;;;;5078149;28;20036;-64
2022/10/15 10:18:36;;;;;;;1.88;1.60;;;16.40;99.90;;;;;;5063289;28;20040;-63
2022/10/15 10:21:04;;;;;;;1.98;1.63;;;16.40;99.90;;;;;;5077177;28;20687;-64
2022/10/15 10:23:36;;;;;;;3.28;2.30;;;16.50;99.90;;;;;;5079546;28;20032;-63
2022/10/15 10:26:07;;;;;;;2.92;2.28;;;16.40;99.90;;;;;;5077149;28;20103;-63
2022/10/15 10:28:41;;;;;;;3.30;2.42;;;16.40;99.90;;;;;;5062336;28;21030;-64
2022/10/15 10:31:08;;;;;;;3.33;2.30;;;16.40;99.90;;;;;;5075979;28;21017;-65
2022/10/15 10:33:54;;;;;;;5.45;2.70;;;16.40;99.90;;;;;;5079606;28;20032;-64
2022/10/15 10:36:35;;;;;;;4.53;3.25;;;16.30;99.90;;;;;;5078355;28;20032;-63
2022/10/15 10:39:13;;;;;;;5.20;2.70;;;16.20;99.90;;;;;;5078011;28;20479;-64
2022/10/15 10:41:55;;;;;;;3.65;2.17;;;16.10;99.90;;;;;;5061802;28;20032;-63
2022/10/15 10:44:31;;;;;;;5.72;2.53;;;16.20;99.90;;;;;;5074114;28;20706;-65
2022/10/15 10:47:20;;;;;;;3.00;2.40;;;16.20;99.90;;;;;;5077120;28;20111;-64
2022/10/15 10:49:48;;;;;;;7.00;3.42;;;16.30;99.90;;;;;;5081774;28;20528;-64
2022/10/15 10:52:37;;;;;;;5.75;3.38;;;16.30;99.90;;;;;;5079880;28;20429;-64
2022/10/15 10:55:37;;;;;;;4.15;3.10;;;16.30;99.90;;;;;;5081233;28;20032;-63
2022/10/15 10:58:03;;;;;;;3.78;2.70;;;16.30;99.90;;;;;;5062714;28;20040;-64
2022/10/15 11:00:38;;;;;;;5.47;3.38;;;16.40;99.90;;;;;;5083048;28;20578;-64
2022/10/15 11:03:05;;;;;;;4.18;2.95;;;16.40;99.90;;;;;;5081422;28;20028;-64
2022/10/15 11:05:36;;;;;;;4.40;3.03;;;16.50;99.90;;;;;;5082917;28;20056;-64
2022/10/15 11:08:47;;;;;;;7.03;3.10;;;16.50;99.90;;;;;;5080965;28;20371;-64
2022/10/15 11:11:39;;;;;;;6.78;3.22;;;16.40;99.90;;;;;;5053239;28;20479;-64
2022/10/15 11:14:27;;;;;;;4.82;2.97;;;16.40;99.90;;;;;;5078614;28;20069;-63
2022/10/15 11:17:07;;;;;;;4.95;3.20;;;16.60;99.90;;;;;;5062881;28;20040;-64
2022/10/15 11:19:56;;;;;;;7.63;4.97;;;16.60;99.90;;;;;;5078018;28;20539;-64
2022/10/15 11:22:51;;;;;;;9.35;4.80;;;16.60;99.90;;;;;;5078084;28;20040;-63
2022/10/15 11:25:26;;;;;;;5.63;2.83;;;16.80;99.90;;;;;;5083700;28;20046;-63
2022/10/15 11:27:51;;;;;;;4.75;2.60;;;16.80;99.90;;;;;;5081533;28;20043;-63
2022/10/15 11:30:26;;;;;;;6.85;3.00;;;16.80;99.90;;;;;;5082454;28;20024;-63
2022/10/15 11:33:20;;;;;;;3.97;2.35;;;16.80;99.90;;;;;;5082437;28;20196;-64
2022/10/15 11:36:14;;;;;;;3.97;2.33;;;16.90;99.90;;;;;;5081271;28;20047;-63
2022/10/15 11:39:11;;;;;;;3.15;2.35;;;17.00;99.90;;;;;;5079061;28;20093;-63
2022/10/15 11:41:54;;;;;;;5.03;2.80;;;17.00;99.90;;;;;;5081955;28;20099;-63
2022/10/15 11:44:40;;;;;;;2.28;1.90;;;17.10;99.90;;;;;;5079265;28;20059;-64
2022/10/15 11:47:22;;;;;;;6.53;2.42;;;17.20;99.90;;;;;;5062802;28;20378;-63
2022/10/15 11:50:10;;;;;;;4.85;2.60;;;17.30;99.90;;;;;;5080098;28;20040;-63
2022/10/15 11:53:15;;;;;;;4.88;2.38;;;17.30;99.90;;;;;;5082171;28;20428;-63
2022/10/15 11:55:56;;;;;;;2.88;2.08;;;17.30;99.90;;;;;;5028870;28;20035;-64
2022/10/15 11:58:40;;;;;;;4.28;2.30;;;17.20;99.90;;;;;;5081294;28;20040;-64
2022/10/15 12:01:08;;;;;;;;;;;17.30;99.90;;;;;;5080503;28;20044;-63
2022/10/15 12:03:42;;;;;;;2.10;1.63;;;17.40;99.90;;;;;;5086771;28;19918;-63
2022/10/15 12:06:13;;;;;;;2.72;1.90;;;17.40;99.90;;;;;;5068381;28;20515;-62
2022/10/15 12:08:40;;;;;;;3.60;1.77;;;17.50;99.90;;;;;;5079909;28;20435;-62
2022/10/15 12:11:30;;;;;;;2.83;2.00;;;17.60;99.90;;;;;;5064454;28;20066;-63
2022/10/15 12:14:15;;;;;;;4.28;1.88;;;17.50;99.90;;;;;;5075202;28;20036;-62
2022/10/15 12:17:00;;;;;;;2.05;1.58;;;17.50;99.90;;;;;;5078306;28;20058;-63
2022/10/15 12:19:34;;;;;;;4.38;1.75;;;17.60;99.90;;;;;;5077825;28;20047;-62
2022/10/15 12:22:10;;;;;;;6.10;1.42;;;17.70;99.90;;;;;;5081146;28;20094;-63
2022/10/15 12:24:46;;;;;;;1.70;1.35;;;17.60;99.90;;;;;;5077503;28;20036;-64
2022/10/15 12:27:22;;;;;;;3.13;1.60;;;17.70;99.90;;;;;;5057779;28;20105;-64
2022/10/15 12:29:51;;;;;;;2.20;1.63;;;16.60;99.90;;;;;;5079125;28;20547;-64
2022/10/15 12:32:29;;;;;;;3.80;1.55;;;18.00;99.90;;;;;;5041009;28;20139;-62
2022/10/15 12:34:56;;;;;;;3.05;1.30;;;17.80;99.90;;;;;;5080137;28;20040;-63
2022/10/15 12:37:25;;;;;;;1.90;1.40;;;17.90;99.90;;;;;;5073489;28;20178;-63
2022/10/15 12:40:00;;;;;;;2.33;1.35;;;17.90;99.90;;;;;;5081943;28;20113;-63
2022/10/15 12:42:29;;;;;;;3.35;1.10;;;17.90;99.90;;;;;;5057295;28;20036;-62
2022/10/15 12:44:57;;;;;;;2.10;1.42;;;18.00;99.90;;;;;;5060434;28;20456;-62
2022/10/15 12:47:44;;;;;;;2.70;1.00;;;18.00;99.90;;;;;;5075093;28;20086;-63
2022/10/15 12:50:19;;;;;;;4.18;1.13;;;18.00;99.90;;;;;;5057267;28;20055;-63
2022/10/15 12:53:00;;;;;;;2.58;1.20;;;18.00;99.90;;;;;;5059605;28;20041;-63
2022/10/15 12:55:38;;;;;;;2.97;0.90;;;18.00;99.90;;;;;;5058136;28;20029;-64